Time;durP1;ratioP1;P1;durP2;ratioP2;P2;SDS_P1;SDS_P2;PMS_P1;PMS_P2;Temp;Humidity;BMP_temperature;BMP_pressure;BME280_temperature;BME280_humidity;BME280_pressure;Samples;Min_cycle;Max_cycle;Signal;HPM_P1;HPM_P2
2021/08/26 00:07:26;;;;;;;21.45;12.38;;;;;;;17.28;72.92;101374.84;5018577;28;20049;-60
2021/08/26 00:09:53;;;;;;;17.75;12.18;;;;;;;17.48;72.36;101378.78;5013122;28;20049;-60
2021/08/26 00:12:21;;;;;;;14.27;11.27;;;;;;;17.25;73.07;101388.66;5015270;28;20559;-60
2021/08/26 00:14:48;;;;;;;19.00;12.73;;;;;;;17.12;73.58;101381.41;5054458;28;20566;-61
2021/08/26 00:17:15;;;;;;;22.20;13.43;;;;;;;17.08;73.68;101388.81;5054422;28;20041;-61
2021/08/26 00:19:43;;;;;;;16.45;12.20;;;;;;;17.04;73.98;101394.25;5054292;28;20055;-62
2021/08/26 00:22:11;;;;;;;17.95;12.43;;;;;;;16.78;75.36;101383.31;5054074;28;20059;-60
2021/08/26 00:24:38;;;;;;;20.50;13.55;;;;;;;17.04;74.20;101385.06;5029994;28;20046;-61
2021/08/26 00:27:06;;;;;;;19.80;12.20;;;;;;;17.19;73.49;101381.69;5014856;28;20058;-60
2021/08/26 00:29:33;;;;;;;17.13;12.20;;;;;;;17.17;73.61;101379.25;5013328;28;20053;-60
2021/08/26 00:32:00;;;;;;;15.73;12.23;;;;;;;17.28;73.00;101390.75;5014595;28;20395;-60
2021/08/26 00:34:27;;;;;;;17.85;12.18;;;;;;;17.09;73.94;101390.41;5014109;28;20045;-60
2021/08/26 00:36:55;;;;;;;19.58;12.38;;;;;;;17.12;73.86;101385.00;5012296;28;20058;-60
2021/08/26 00:39:23;;;;;;;17.83;12.13;;;;;;;17.09;73.71;101391.25;5014383;28;20155;-61
2021/08/26 00:41:50;;;;;;;18.65;13.00;;;;;;;16.83;74.89;101388.69;5018117;28;20057;-61
2021/08/26 00:44:18;;;;;;;18.25;13.00;;;;;;;16.91;74.88;101392.56;5014389;28;20061;-61
2021/08/26 00:46:47;;;;;;;17.75;12.32;;;;;;;16.79;74.92;101398.03;5014348;28;20052;-60
2021/08/26 00:49:15;;;;;;;15.27;11.23;;;;;;;16.73;74.89;101386.31;5014575;28;20054;-59
2021/08/26 00:51:44;;;;;;;14.82;10.30;;;;;;;17.02;73.99;101377.06;5012639;28;20552;-61
2021/08/26 00:54:11;;;;;;;14.23;10.65;;;;;;;16.85;74.14;101378.03;5013984;28;20045;-61
2021/08/26 00:56:39;;;;;;;15.50;11.00;;;;;;;16.60;75.50;101381.81;5013018;28;20056;-61
2021/08/26 00:59:07;;;;;;;14.23;10.88;;;;;;;16.62;75.29;101367.56;5019891;28;20049;-61
2021/08/26 01:01:49;;;;;;;17.92;10.98;;;;;;;16.33;76.64;101375.91;5032669;28;20046;-60
2021/08/26 01:04:32;;;;;;;16.80;10.35;;;;;;;16.30;76.74;101376.59;5032911;28;20045;-61
2021/08/26 01:06:59;;;;;;;15.55;10.10;;;;;;;16.43;76.21;101373.56;5015577;28;20053;-59
2021/08/26 01:09:32;;;;;;;11.57;9.85;;;;;;;16.45;75.89;101367.66;5033659;28;20049;-61
2021/08/26 01:12:01;;;;;;;14.20;10.40;;;;;;;16.35;76.40;101376.38;5033597;28;20058;-61
2021/08/26 01:14:29;;;;;;;14.73;10.07;;;;;;;16.37;76.62;101377.66;5050958;28;20680;-61
2021/08/26 01:16:57;;;;;;;14.82;9.10;;;;;;;16.67;75.35;101378.47;5025075;28;20456;-61
2021/08/26 01:19:24;;;;;;;12.05;8.88;;;;;;;16.40;75.73;101378.97;5013662;28;20568;-63
2021/08/26 01:21:51;;;;;;;11.45;9.07;;;;;;;16.50;75.78;101378.59;5013656;28;20054;-61
2021/08/26 01:24:18;;;;;;;18.58;9.02;;;;;;;16.56;75.19;101368.94;5014054;28;20064;-67
2021/08/26 01:26:50;;;;;;;16.65;8.30;;;;;;;16.47;75.87;101369.00;5012397;28;20057;-66
2021/08/26 01:29:18;;;;;;;16.15;8.45;;;;;;;16.42;75.87;101365.53;5013671;28;20046;-67
2021/08/26 01:31:45;;;;;;;13.90;8.30;;;;;;;16.61;74.83;101365.94;5012432;28;20077;-66
2021/08/26 01:34:18;;;;;;;10.95;8.30;;;;;;;16.39;75.55;101363.41;5016065;28;20527;-66
2021/08/26 01:36:46;;;;;;;9.43;7.13;;;;;;;16.55;75.07;101368.09;5029604;28;20053;-66
2021/08/26 01:39:15;;;;;;;10.95;7.85;;;;;;;16.58;74.85;101363.84;5028210;28;20080;-66
2021/08/26 01:41:47;;;;;;;11.18;7.10;;;;;;;16.57;74.94;101360.25;5011817;28;20524;-66
2021/08/26 01:44:27;;;;;;;11.73;7.03;;;;;;;16.60;74.41;101351.22;5013264;28;20050;-67
2021/08/26 01:46:57;;;;;;;;;;;;;;;16.66;74.19;101351.81;5013972;28;20068;-66
2021/08/26 01:49:25;;;;;;;11.77;6.95;;;;;;;16.14;76.65;101353.28;5028414;28;19993;-66
2021/08/26 01:51:52;;;;;;;10.98;6.90;;;;;;;16.18;76.69;101349.47;5013284;28;20501;-66
2021/08/26 01:54:20;;;;;;;11.45;6.85;;;;;;;16.23;76.70;101360.41;5011245;28;20053;-66
2021/08/26 01:56:48;;;;;;;11.70;6.93;;;;;;;16.24;76.80;101347.31;5012362;28;20061;-66
2021/08/26 01:59:15;;;;;;;11.98;7.43;;;;;;;16.32;76.05;101352.03;5013238;28;20053;-61
2021/08/26 02:01:42;;;;;;;12.48;6.97;;;;;;;16.26;76.31;101353.38;5013549;28;20450;-60
2021/08/26 02:04:09;;;;;;;11.30;7.47;;;;;;;16.34;76.06;101352.50;5013259;28;20058;-60
2021/08/26 02:06:37;;;;;;;14.05;7.68;;;;;;;16.14;77.05;101347.72;5017702;28;20049;-60
2021/08/26 02:09:04;;;;;;;12.52;8.35;;;;;;;16.16;76.65;101348.22;5013399;28;20049;-60
2021/08/26 02:11:31;;;;;;;20.80;7.93;;;;;;;16.17;77.06;101342.31;5013469;28;20053;-61
2021/08/26 02:13:58;;;;;;;9.95;7.35;;;;;;;16.34;76.50;101342.19;5024573;28;20053;-61
2021/08/26 02:16:26;;;;;;;12.82;8.07;;;;;;;16.25;75.96;101344.22;5056985;28;20049;-59
2021/08/26 02:18:53;;;;;;;12.52;7.80;;;;;;;16.28;76.09;101349.13;5055484;28;20053;-59
2021/08/26 02:21:20;;;;;;;17.25;8.30;;;;;;;16.12;77.01;101347.25;5056452;28;20048;-66
2021/08/26 02:23:50;;;;;;;11.82;7.78;;;;;;;16.33;76.35;101345.31;5035303;28;20124;-65
2021/08/26 02:26:17;;;;;;;13.20;8.05;;;;;;;16.02;77.52;101347.63;5017029;28;20049;-66
2021/08/26 02:28:44;;;;;;;12.52;8.68;;;;;;;16.07;77.59;101348.25;5015159;28;20057;-66
2021/08/26 02:31:12;;;;;;;14.35;9.65;;;;;;;15.73;78.45;101349.22;5016643;28;20065;-66
2021/08/26 02:33:39;;;;;;;10.73;8.15;;;;;;;15.87;78.00;101340.66;5031865;28;20057;-64
2021/08/26 02:36:06;;;;;;;11.60;8.93;;;;;;;15.93;77.72;101342.13;5016277;28;20505;-61
2021/08/26 02:38:34;;;;;;;14.05;11.07;;;;;;;15.87;77.99;101342.59;5016638;28;20058;-61
2021/08/26 02:41:01;;;;;;;15.57;10.52;;;;;;;16.07;77.31;101350.22;5019997;28;20512;-61
2021/08/26 02:43:28;;;;;;;15.75;10.85;;;;;;;16.11;76.73;101346.41;5016836;28;20050;-61
2021/08/26 02:45:56;;;;;;;17.52;10.75;;;;;;;16.23;76.72;101343.72;4998929;28;20429;-60
2021/08/26 02:48:23;;;;;;;14.02;11.95;;;;;;;16.13;76.74;101341.34;5014868;28;20081;-61
2021/08/26 02:50:50;;;;;;;15.68;11.82;;;;;;;16.00;77.13;101342.41;5014502;28;20069;-60
2021/08/26 02:53:18;;;;;;;15.30;11.90;;;;;;;16.00;77.44;101338.81;5031491;28;20050;-60
2021/08/26 02:55:45;;;;;;;14.32;11.88;;;;;;;16.01;77.38;101332.09;5015033;28;20045;-66
2021/08/26 02:58:13;;;;;;;17.73;12.00;;;;;;;15.71;78.29;101337.63;5016741;28;20065;-66
2021/08/26 03:00:40;;;;;;;13.57;9.90;;;;;;;15.60;78.88;101341.09;5014954;28;20152;-60
2021/08/26 03:03:07;;;;;;;13.75;9.82;;;;;;;15.58;78.95;101344.22;5016256;28;20046;-60
2021/08/26 03:05:35;;;;;;;10.90;8.18;;;;;;;15.47;79.15;101340.16;5014227;28;20050;-61
2021/08/26 03:08:03;;;;;;;13.50;8.50;;;;;;;15.53;79.54;101347.13;4982276;28;20049;-60
2021/08/26 03:10:30;;;;;;;11.35;7.28;;;;;;;15.37;79.52;101343.25;5014890;28;20050;-59
2021/08/26 03:12:57;;;;;;;12.48;7.10;;;;;;;15.61;79.36;101343.53;5028078;28;20045;-60
2021/08/26 03:15:25;;;;;;;10.85;6.78;;;;;;;15.90;77.70;101334.41;5019392;28;20061;-61
2021/08/26 03:17:52;;;;;;;10.15;7.22;;;;;;;15.81;77.15;101335.63;5016031;28;20050;-60
2021/08/26 03:20:20;;;;;;;10.98;6.53;;;;;;;15.88;76.70;101330.38;5015809;28;20060;-60
2021/08/26 03:22:48;;;;;;;9.23;6.20;;;;;;;15.77;77.58;101339.06;5015708;28;20049;-60
2021/08/26 03:25:15;;;;;;;8.45;5.90;;;;;;;15.57;77.74;101334.22;5015719;28;20057;-60
2021/08/26 03:27:43;;;;;;;9.45;6.00;;;;;;;15.33;79.30;101333.13;5015595;28;20049;-61
2021/08/26 03:30:11;;;;;;;9.40;6.03;;;;;;;15.16;80.51;101333.16;5014524;28;20054;-60
2021/08/26 03:32:38;;;;;;;7.13;5.15;;;;;;;15.35;79.80;101322.50;5004167;28;20042;-61
2021/08/26 03:35:06;;;;;;;7.88;5.32;;;;;;;15.43;79.10;101319.75;5030487;28;20064;-61
2021/08/26 03:37:33;;;;;;;9.50;5.25;;;;;;;15.57;78.39;101328.69;5033048;28;20053;-61
2021/08/26 03:40:01;;;;;;;11.07;5.80;;;;;;;15.44;78.79;101326.94;5015508;28;20053;-61
2021/08/26 03:42:28;;;;;;;8.23;5.93;;;;;;;15.57;78.00;101325.06;5015556;28;20046;-61
2021/08/26 03:44:55;;;;;;;8.38;4.95;;;;;;;15.73;77.32;101326.16;5015770;28;20057;-59
2021/08/26 03:47:22;;;;;;;8.27;5.13;;;;;;;15.69;77.00;101334.34;5030479;28;20643;-60
2021/08/26 03:49:50;;;;;;;12.45;5.50;;;;;;;15.33;78.43;101331.19;5015278;28;20041;-60
2021/08/26 03:52:17;;;;;;;8.75;5.72;;;;;;;15.16;79.41;101333.16;5014491;28;20053;-60
2021/08/26 03:54:44;;;;;;;8.63;5.60;;;;;;;15.25;79.37;101323.69;5013467;28;20065;-62
2021/08/26 03:57:11;;;;;;;6.93;4.75;;;;;;;15.47;78.76;101322.66;5015091;28;20057;-61
2021/08/26 03:59:39;;;;;;;9.23;5.30;;;;;;;15.69;77.53;101325.22;5030241;28;20062;-59
2021/08/26 04:02:06;;;;;;;9.27;5.53;;;;;;;15.73;76.51;101326.16;5015060;28;20050;-59
2021/08/26 04:04:33;;;;;;;8.00;5.25;;;;;;;15.82;76.51;101320.56;5018077;28;20057;-60
2021/08/26 04:07:01;;;;;;;7.95;5.80;;;;;;;15.52;77.02;101326.09;5013824;28;20557;-60
2021/08/26 04:09:28;;;;;;;8.32;5.60;;;;;;;15.41;77.92;101326.78;5029899;28;20081;-60
2021/08/26 04:11:55;;;;;;;7.88;5.00;;;;;;;15.57;77.74;101328.69;5015362;28;20053;-60
2021/08/26 04:14:22;;;;;;;9.45;5.32;;;;;;;15.91;76.73;101330.50;5050125;28;20057;-61
2021/08/26 04:16:50;;;;;;;8.23;4.72;;;;;;;15.58;77.41;101326.72;5054400;28;20591;-61
2021/08/26 04:19:17;;;;;;;7.10;4.50;;;;;;;15.96;76.17;101332.28;5054187;28;20049;-60
2021/08/26 04:21:46;;;;;;;9.95;4.63;;;;;;;15.68;76.85;101337.47;5048584;28;20429;-62
2021/08/26 04:24:13;;;;;;;11.18;4.63;;;;;;;15.49;78.32;101342.59;5013990;28;20058;-60
2021/08/26 04:26:40;;;;;;;8.30;4.32;;;;;;;15.76;77.59;101337.44;5014700;28;20045;-62
2021/08/26 04:29:08;;;;;;;7.65;4.03;;;;;;;15.89;76.21;101335.59;5014727;28;20517;-60
2021/08/26 04:31:36;;;;;;;7.78;4.00;;;;;;;15.30;78.15;101331.03;5014528;28;20041;-60
2021/08/26 04:34:03;;;;;;;7.28;3.95;;;;;;;15.25;79.84;101331.19;5014310;28;20061;-61
2021/08/26 04:36:30;;;;;;;7.97;4.20;;;;;;;15.29;79.03;101330.19;5012057;28;20065;-61
2021/08/26 04:38:58;;;;;;;9.60;4.10;;;;;;;15.26;78.99;101321.72;5015636;28;20052;-61
2021/08/26 04:41:25;;;;;;;8.93;3.83;;;;;;;15.17;79.37;101320.91;4997098;28;20061;-59
2021/08/26 04:43:52;;;;;;;8.85;4.25;;;;;;;15.17;79.54;101313.41;5014380;28;20057;-60
2021/08/26 04:46:20;;;;;;;6.75;3.92;;;;;;;15.20;79.75;101318.28;5014166;28;20066;-60
2021/08/26 04:48:47;;;;;;;8.07;4.35;;;;;;;15.22;79.10;101321.56;5013164;28;20060;-60
2021/08/26 04:51:14;;;;;;;7.82;4.40;;;;;;;14.86;81.20;101326.66;5012768;28;20045;-60
2021/08/26 04:53:41;;;;;;;6.65;4.00;;;;;;;15.00;80.69;101334.81;5012975;28;20049;-60
2021/08/26 04:56:09;;;;;;;9.40;4.75;;;;;;;14.89;81.30;101330.75;5012341;28;20102;-60
2021/08/26 04:58:38;;;;;;;10.90;4.07;;;;;;;14.83;81.81;101335.66;5028549;28;20050;-62
2021/08/26 05:01:05;;;;;;;8.38;3.47;;;;;;;15.01;81.59;101328.13;5014106;28;20393;-62
2021/08/26 05:03:32;;;;;;;7.35;3.92;;;;;;;15.01;81.29;101331.72;5014118;28;20042;-61
2021/08/26 05:06:04;;;;;;;5.78;3.20;;;;;;;14.97;81.36;101333.53;5013789;28;20054;-61
2021/08/26 05:08:33;;;;;;;6.75;3.50;;;;;;;15.23;80.65;101333.47;5012859;28;20053;-61
2021/08/26 05:11:00;;;;;;;6.15;3.00;;;;;;;15.31;79.89;101327.09;5012858;28;20045;-61
2021/08/26 05:13:27;;;;;;;7.60;3.10;;;;;;;15.21;80.55;101327.44;5027196;28;20050;-60
2021/08/26 05:15:54;;;;;;;8.15;3.60;;;;;;;15.27;80.83;101329.69;5033555;28;20056;-60
2021/08/26 05:18:22;;;;;;;6.03;2.97;;;;;;;15.22;80.79;101329.09;5033650;28;20050;-60
2021/08/26 05:20:49;;;;;;;5.13;3.03;;;;;;;15.12;81.38;101330.22;5033556;28;20056;-60
2021/08/26 05:23:17;;;;;;;8.80;3.50;;;;;;;15.18;81.16;101334.47;5028807;28;20056;-61
2021/08/26 05:25:44;;;;;;;7.65;3.03;;;;;;;15.06;82.44;101339.06;5031030;28;20049;-60
2021/08/26 05:28:11;;;;;;;6.18;3.25;;;;;;;15.10;83.11;101332.50;5030781;28;20053;-59
2021/08/26 05:30:38;;;;;;;5.28;2.67;;;;;;;15.04;82.83;101344.94;5015910;28;20065;-60
2021/08/26 05:33:06;;;;;;;7.82;3.10;;;;;;;15.05;83.35;101342.97;5027196;28;20046;-60
2021/08/26 05:35:33;;;;;;;7.30;3.28;;;;;;;15.09;83.21;101333.69;5011928;28;20077;-60
2021/08/26 05:38:01;;;;;;;7.00;3.13;;;;;;;15.24;83.14;101332.31;5011967;28;20046;-60
2021/08/26 05:40:29;;;;;;;7.85;2.70;;;;;;;15.57;81.49;101330.63;5013199;28;20049;-60
2021/08/26 05:42:56;;;;;;;6.60;3.08;;;;;;;15.52;80.75;101328.03;5013695;28;20050;-61
2021/08/26 05:45:23;;;;;;;8.32;3.75;;;;;;;15.13;82.12;101336.59;5028465;28;20058;-61
2021/08/26 05:47:55;;;;;;;7.00;3.90;;;;;;;14.92;83.61;101338.41;5017915;28;20157;-61
2021/08/26 05:50:23;;;;;;;8.43;4.07;;;;;;;15.03;83.50;101331.41;5017928;28;20083;-61
2021/08/26 05:52:51;;;;;;;7.95;3.47;;;;;;;15.07;83.30;101327.63;5021162;28;20049;-60
2021/08/26 05:55:18;;;;;;;9.95;3.75;;;;;;;14.96;83.61;101331.88;5029463;28;20432;-62
2021/08/26 05:57:46;;;;;;;8.95;3.47;;;;;;;15.09;82.94;101324.53;5018502;28;20070;-61
2021/08/26 06:00:14;;;;;;;6.47;3.20;;;;;;;15.14;82.90;101322.41;5020826;28;20138;-62
2021/08/26 06:02:41;;;;;;;6.40;3.50;;;;;;;15.21;82.33;101324.66;5034259;28;20048;-62
2021/08/26 06:05:09;;;;;;;6.78;3.35;;;;;;;15.48;81.31;101327.88;5027717;28;20061;-61
2021/08/26 06:07:38;;;;;;;6.38;2.97;;;;;;;15.50;80.80;101325.59;5024825;28;20037;-59
2021/08/26 06:10:07;;;;;;;6.07;2.95;;;;;;;15.51;80.72;101331.97;5033553;28;20049;-60
2021/08/26 06:12:39;;;;;;;6.07;2.92;;;;;;;15.58;79.99;101332.28;5038404;28;20052;-60
2021/08/26 06:15:07;;;;;;;6.18;3.28;;;;;;;15.39;81.25;101331.81;5051123;28;20078;-61
2021/08/26 06:17:35;;;;;;;14.77;3.78;;;;;;;15.42;80.74;101331.19;5048617;28;20497;-61
2021/08/26 06:20:04;;;;;;;7.45;2.85;;;;;;;15.54;81.42;101334.91;5021477;28;20045;-61
2021/08/26 06:22:31;;;;;;;7.10;3.33;;;;;;;15.62;80.34;101342.38;5027034;28;20057;-59
2021/08/26 06:24:59;;;;;;;9.43;3.58;;;;;;;15.42;81.55;101336.72;5033750;28;20516;-60
2021/08/26 06:27:26;;;;;;;9.23;3.30;;;;;;;15.62;80.54;101339.59;5029494;28;20052;-62
2021/08/26 06:29:54;;;;;;;7.47;3.53;;;;;;;15.50;80.98;101341.44;5018404;28;20080;-61
2021/08/26 06:32:21;;;;;;;9.75;3.53;;;;;;;15.37;81.34;101340.47;5032250;28;20060;-62
2021/08/26 06:34:48;;;;;;;5.72;2.95;;;;;;;15.56;81.04;101345.69;5031122;28;20046;-60
2021/08/26 06:37:16;;;;;;;7.40;2.90;;;;;;;15.82;79.86;101342.78;5022945;28;20060;-61
2021/08/26 06:39:43;;;;;;;6.88;3.63;;;;;;;15.47;81.31;101354.03;5023445;28;20038;-60
2021/08/26 06:42:10;;;;;;;10.15;3.20;;;;;;;15.33;81.66;101347.81;5028968;28;20044;-60
2021/08/26 06:44:38;;;;;;;13.68;3.22;;;;;;;15.78;81.01;101340.69;5029297;28;20041;-60
2021/08/26 06:47:05;;;;;;;10.93;2.97;;;;;;;16.03;78.94;101329.78;5032071;28;20041;-61
2021/08/26 06:49:32;;;;;;;7.53;3.28;;;;;;;15.93;79.18;101339.34;5034270;28;20050;-61
2021/08/26 06:52:00;;;;;;;6.68;3.25;;;;;;;16.06;79.71;101334.66;5033249;28;20049;-60
2021/08/26 06:54:28;;;;;;;8.90;3.20;;;;;;;16.29;78.61;101336.00;5023462;28;20053;-60
2021/08/26 06:56:55;;;;;;;12.40;3.30;;;;;;;15.99;80.96;101339.97;5045256;28;20052;-61
2021/08/26 06:59:22;;;;;;;10.18;3.15;;;;;;;16.11;80.37;101334.50;5054807;28;20063;-60
2021/08/26 07:01:50;;;;;;;9.55;3.53;;;;;;;16.09;80.25;101334.03;5039297;28;20056;-61
2021/08/26 07:04:19;;;;;;;6.15;3.25;;;;;;;16.19;80.23;101334.44;5031037;28;20042;-61
2021/08/26 07:06:46;;;;;;;10.80;3.45;;;;;;;16.44;79.04;101329.88;5042935;28;20044;-61
2021/08/26 07:09:14;;;;;;;7.13;3.50;;;;;;;16.15;80.04;101341.81;5038050;28;20519;-60
2021/08/26 07:11:41;;;;;;;11.65;3.40;;;;;;;15.91;81.54;101336.06;5034037;28;20045;-60
2021/08/26 07:14:08;;;;;;;8.50;3.72;;;;;;;15.89;81.87;101331.97;5026039;28;20050;-60
2021/08/26 07:16:36;;;;;;;11.45;3.90;;;;;;;15.94;82.36;101335.38;5031727;28;20045;-60
2021/08/26 07:19:03;;;;;;;12.70;4.22;;;;;;;16.02;80.87;101334.56;5030676;28;20085;-62
2021/08/26 07:21:31;;;;;;;10.77;3.97;;;;;;;15.79;82.46;101336.75;5033711;28;20045;-61
2021/08/26 07:23:59;;;;;;;12.48;5.25;;;;;;;15.86;82.30;101335.44;5035411;28;20052;-60
2021/08/26 07:26:26;;;;;;;10.60;4.50;;;;;;;16.01;81.82;101332.91;5034449;28;20061;-61
2021/08/26 07:28:54;;;;;;;11.80;4.10;;;;;;;15.76;82.51;101344.94;5038739;28;20057;-60
2021/08/26 07:31:22;;;;;;;10.60;5.07;;;;;;;15.52;83.82;101339.97;5046978;28;20056;-62
2021/08/26 07:33:49;;;;;;;9.40;4.40;;;;;;;15.69;83.36;101330.78;5032366;28;20050;-60
2021/08/26 07:36:17;;;;;;;9.48;4.07;;;;;;;16.40;80.50;101337.25;5024806;28;20045;-62
2021/08/26 07:38:44;;;;;;;10.75;4.53;;;;;;;16.50;79.54;101331.31;5017630;28;20064;-60
2021/08/26 07:41:11;;;;;;;10.00;4.78;;;;;;;17.01;76.97;101330.09;5034980;28;20191;-61
2021/08/26 07:43:38;;;;;;;12.70;4.82;;;;;;;17.34;75.22;101328.94;5034433;28;20053;-61
2021/08/26 07:46:06;;;;;;;9.35;4.95;;;;;;;17.62;73.53;101331.94;5034665;28;20125;-61
2021/08/26 07:48:34;;;;;;;11.65;5.00;;;;;;;16.94;75.84;101338.19;5046939;28;20056;-61
2021/08/26 07:51:03;;;;;;;10.68;5.03;;;;;;;16.70;78.21;101333.31;5054516;28;20412;-61
2021/08/26 07:53:31;;;;;;;11.80;5.20;;;;;;;16.60;78.18;101339.25;5042840;28;20056;-61
2021/08/26 07:55:59;;;;;;;12.40;5.10;;;;;;;16.45;79.71;101334.28;5026443;28;20060;-61
2021/08/26 07:58:29;;;;;;;12.52;5.90;;;;;;;16.85;78.21;101335.47;5054709;28;20052;-61
2021/08/26 08:01:00;;;;;;;12.77;5.13;;;;;;;16.60;78.42;101334.53;5043658;28;20061;-61
2021/08/26 08:03:28;;;;;;;14.35;6.25;;;;;;;16.54;79.71;101332.28;5034437;28;20053;-61
2021/08/26 08:05:55;;;;;;;9.43;5.35;;;;;;;16.88;77.92;101335.59;5052702;28;20053;-61
2021/08/26 08:08:23;;;;;;;11.23;5.43;;;;;;;16.66;78.42;101335.13;5054548;28;20425;-61
2021/08/26 08:10:50;;;;;;;16.35;6.07;;;;;;;16.70;78.53;101334.09;5036700;28;20053;-61
2021/08/26 08:13:17;;;;;;;10.90;5.43;;;;;;;16.57;79.36;101339.94;5028598;28;20056;-60
2021/08/26 08:15:44;;;;;;;12.30;5.43;;;;;;;16.40;80.16;101338.09;5044864;28;20049;-61
2021/08/26 08:18:12;;;;;;;13.68;6.45;;;;;;;16.24;81.32;101336.22;5033827;28;20050;-60
2021/08/26 08:20:41;;;;;;;12.75;5.55;;;;;;;16.47;80.53;101338.41;5032640;28;20057;-61
2021/08/26 08:23:08;;;;;;;15.40;6.43;;;;;;;16.25;81.74;101337.84;5032609;28;20076;-61
2021/08/26 08:25:36;;;;;;;17.05;6.45;;;;;;;16.35;82.04;101332.69;5037739;28;20045;-61
2021/08/26 08:28:14;;;;;;;13.05;5.93;;;;;;;16.70;80.63;101338.88;5043889;28;20461;-61
2021/08/26 08:30:42;;;;;;;12.23;5.63;;;;;;;16.65;80.08;101328.75;5024240;28;20053;-62
2021/08/26 08:33:10;;;;;;;13.70;6.00;;;;;;;16.52;81.12;101329.84;5022250;28;20045;-61
2021/08/26 08:35:37;;;;;;;11.15;6.30;;;;;;;16.89;80.46;101328.06;5022090;28;20042;-61
2021/08/26 08:38:04;;;;;;;12.65;5.78;;;;;;;17.10;78.76;101331.66;5032400;28;20052;-61
2021/08/26 08:40:32;;;;;;;15.13;5.93;;;;;;;16.99;79.03;101333.22;5035717;28;20054;-61
2021/08/26 08:43:00;;;;;;;10.18;5.75;;;;;;;16.83;80.12;101330.25;5047994;28;20053;-60
2021/08/26 08:45:28;;;;;;;9.75;5.32;;;;;;;16.94;79.96;101339.00;5032476;28;20060;-61
2021/08/26 08:47:57;;;;;;;11.85;5.75;;;;;;;16.84;80.38;101333.84;5052217;28;20515;-60
2021/08/26 08:50:26;;;;;;;10.45;5.75;;;;;;;17.24;79.25;101342.47;5032681;28;20405;-60
2021/08/26 08:52:54;;;;;;;10.85;5.20;;;;;;;17.29;78.32;101331.94;5032890;28;20537;-60
2021/08/26 08:55:22;;;;;;;12.88;5.32;;;;;;;17.14;79.59;101331.78;5009857;28;20068;-61
2021/08/26 08:57:49;;;;;;;15.52;5.88;;;;;;;17.25;79.19;101327.38;5022409;28;20047;-61
2021/08/26 09:00:18;;;;;;;12.68;5.70;;;;;;;17.72;77.64;101323.13;5030573;28;20049;-61
2021/08/26 09:02:46;;;;;;;11.20;5.68;;;;;;;18.00;76.40;101332.44;5026821;28;20045;-61
2021/08/26 09:05:13;;;;;;;11.13;4.90;;;;;;;17.98;75.17;101316.06;5027109;28;20039;-60
2021/08/26 09:07:41;;;;;;;12.48;5.15;;;;;;;17.86;76.34;101323.59;5016986;28;20050;-61
2021/08/26 09:10:09;;;;;;;13.07;5.45;;;;;;;17.89;76.09;101311.75;5030892;28;20064;-61
2021/08/26 09:12:47;;;;;;;9.75;5.05;;;;;;;18.02;75.89;101320.94;5032824;28;20061;-62
2021/08/26 09:15:23;;;;;;;11.98;5.53;;;;;;;17.88;76.44;101321.28;5013304;28;20408;-60
2021/08/26 09:18:14;;;;;;;8.55;4.90;;;;;;;18.03;75.95;101322.56;5019953;28;20057;-61
2021/08/26 09:21:00;;;;;;;9.13;5.32;;;;;;;17.87;76.97;101317.66;5025189;28;20045;-61
2021/08/26 09:23:30;;;;;;;11.43;5.50;;;;;;;17.98;76.44;101327.22;5021924;28;20049;-61
2021/08/26 09:26:33;;;;;;;11.20;5.20;;;;;;;18.20;75.91;101331.47;5024400;28;20042;-60
2021/08/26 09:29:03;;;;;;;10.93;4.45;;;;;;;18.19;76.41;101335.44;4990985;28;20073;-61
2021/08/26 09:31:32;;;;;;;10.05;4.60;;;;;;;18.09;78.18;101332.31;4997251;28;20066;-60
2021/08/26 09:34:11;;;;;;;12.18;4.38;;;;;;;17.88;79.42;101338.81;5023768;28;20560;-62
2021/08/26 09:36:52;;;;;;;12.02;4.90;;;;;;;17.36;82.49;101342.53;5029887;28;20066;-60
2021/08/26 09:39:29;;;;;;;13.95;5.88;;;;;;;17.29;84.35;101325.56;5016470;28;20126;-61
2021/08/26 09:42:00;;;;;;;10.10;5.78;;;;;;;17.31;85.22;101331.59;5026086;28;20057;-61
2021/08/26 09:44:30;;;;;;;12.05;4.97;;;;;;;17.46;83.82;101320.66;5008477;28;20061;-61
2021/08/26 09:46:59;;;;;;;8.20;4.72;;;;;;;17.40;83.87;101319.19;5020451;28;20057;-60
2021/08/26 09:49:29;;;;;;;12.95;4.43;;;;;;;17.62;82.98;101329.97;5029016;28;20049;-61
2021/08/26 09:52:15;;;;;;;10.80;4.10;;;;;;;17.57;82.51;101319.03;5026454;28;20148;-61
2021/08/26 09:54:44;;;;;;;6.60;4.00;;;;;;;17.76;81.69;101319.31;5021385;28;20054;-61
2021/08/26 09:57:33;;;;;;;6.30;3.47;;;;;;;18.14;79.80;101315.34;5021259;28;20072;-60
2021/08/26 10:00:03;;;;;;;8.27;4.13;;;;;;;18.19;79.53;101315.94;5031715;28;20501;-60
2021/08/26 10:02:46;;;;;;;10.52;4.03;;;;;;;18.13;79.94;101314.56;5016268;28;20069;-60
2021/08/26 10:05:15;;;;;;;8.75;4.45;;;;;;;18.27;79.52;101316.97;5029516;28;20057;-60
2021/08/26 10:07:45;;;;;;;7.53;4.47;;;;;;;18.35;79.11;101311.25;5017173;28;20041;-60
2021/08/26 10:10:13;;;;;;;;;;;;;;;18.20;79.75;101316.75;5029753;28;20046;-60
2021/08/26 10:12:40;;;;;;;9.82;4.10;;;;;;;18.38;78.69;101304.97;5015789;28;19921;-60
2021/08/26 10:15:09;;;;;;;6.43;4.03;;;;;;;18.79;77.23;101315.81;5030052;28;20505;-61
2021/08/26 10:17:37;;;;;;;8.77;3.43;;;;;;;18.60;79.18;101307.28;5028588;28;20048;-57
2021/08/26 10:20:05;;;;;;;6.95;3.72;;;;;;;20.89;67.69;101293.59;5031415;28;20540;-48
2021/08/26 10:22:32;;;;;;;8.02;3.20;;;;;;;21.13;65.39;101304.56;5017196;28;20042;-46
2021/08/26 10:25:00;;;;;;;7.63;3.10;;;;;;;20.91;66.32;101302.44;5016128;28;20049;-47
2021/08/26 10:27:28;;;;;;;7.20;2.95;;;;;;;21.31;65.17;101304.88;5009024;28;20053;-48
2021/08/26 10:29:55;;;;;;;5.60;2.80;;;;;;;22.18;61.51;101294.41;5031108;28;20060;-48
2021/08/26 10:32:25;;;;;;;8.20;3.72;;;;;;;22.04;62.08;101299.78;5025655;28;20057;-46
2021/08/26 10:35:06;;;;;;;9.15;2.72;;;;;;;21.80;63.58;101288.97;5029572;28;20049;-48
2021/08/26 10:37:56;;;;;;;5.63;2.67;;;;;;;22.06;62.02;101292.63;5032280;28;20057;-46
2021/08/26 10:40:28;;;;;;;;;;;;;;;22.43;60.80;101280.72;5037059;28;20136;-48
2021/08/26 10:42:55;;;;;;;8.65;2.78;;;;;;;22.53;60.98;101291.28;5028994;28;19921;-45
2021/08/26 10:45:45;;;;;;;6.95;2.75;;;;;;;22.61;59.97;101291.06;5034585;28;20576;-48
2021/08/26 10:48:16;;;;;;;5.38;2.60;;;;;;;22.09;61.78;101282.63;5034716;28;20049;-46
2021/08/26 10:50:45;;;;;;;5.40;2.50;;;;;;;21.38;64.47;101283.41;5031014;28;20552;-61
2021/08/26 10:53:34;;;;;;;5.50;2.38;;;;;;;20.36;67.59;101295.28;5024941;28;20042;-62
2021/08/26 10:56:25;;;;;;;4.82;2.17;;;;;;;19.97;69.72;101285.94;5019625;28;20048;-64
2021/08/26 10:58:54;;;;;;;6.03;2.50;;;;;;;19.18;72.14;101294.59;5022148;28;20049;-63
2021/08/26 11:01:28;;;;;;;4.70;2.20;;;;;;;19.66;70.61;101285.13;5028107;28;20503;-63
2021/08/26 11:03:57;;;;;;;3.80;1.80;;;;;;;19.49;71.63;101291.09;5029193;28;20060;-63
2021/08/26 11:06:24;;;;;;;5.03;2.60;;;;;;;19.38;73.43;101289.97;5025190;28;20041;-63
2021/08/26 11:08:57;;;;;;;7.32;2.88;;;;;;;19.32;74.80;101286.63;5032889;28;20049;-63
2021/08/26 11:11:24;;;;;;;6.28;2.60;;;;;;;19.54;74.30;101293.59;5036018;28;20064;-63
2021/08/26 11:14:12;;;;;;;7.25;2.60;;;;;;;19.40;74.49;101302.44;5048590;28;20052;-65
2021/08/26 11:16:41;;;;;;;6.50;2.28;;;;;;;18.90;74.37;101316.13;5051488;28;20056;-64
2021/08/26 11:19:11;;;;;;;8.18;2.42;;;;;;;18.92;74.39;101311.00;5037398;28;20050;-63
2021/08/26 11:21:44;;;;;;;8.60;2.95;;;;;;;19.00;74.26;101307.28;5033016;28;20064;-62
2021/08/26 11:24:12;;;;;;;6.72;2.70;;;;;;;18.83;74.74;101313.13;5033178;28;20053;-62
2021/08/26 11:26:46;;;;;;;6.85;2.70;;;;;;;19.08;73.85;101312.69;5033323;28;20050;-63
2021/08/26 11:29:17;;;;;;;8.27;3.28;;;;;;;18.88;73.95;101308.09;5000946;28;20627;-64
2021/08/26 11:31:50;;;;;;;;;;;;;;;18.91;74.43;101309.41;5016153;28;20054;-63
2021/08/26 11:34:19;;;;;;;8.80;3.00;;;;;;;18.63;75.55;101308.56;5016061;28;19921;-63
2021/08/26 11:37:04;;;;;;;7.70;3.50;;;;;;;18.90;74.10;101307.75;5017042;28;20058;-63